Terminal Aerodrome Forecast
Issued by NWS Central Illinois

Home | Current Version | Previous Version | Text Only | Print | Product List | Glossary On
Versions: 1 2 3 4 5 6 7 8 9 10 11 12 13 14 15 16 17 18 19 20
110
FTUS43 KILX 140530
TAFPIA
TAF
KPIA 140530Z 1406/1506 14008KT P6SM OVC100
     FM140800 14010KT P6SM SCT035 OVC060
      TEMPO 1408/1410 3SM -SN SCT025 OVC035
     FM141500 14013G21KT 1SM -SN BR SCT015 OVC025
      TEMPO 1416/1419 1/2SM SN FG SCT002 OVC007
     FM141900 14012KT 3SM -SN BR OVC008
     FM150300 16010KT 5SM BR OVC015=

USA.gov is the U.S. government's official web portal to all federal, state and local government web resources and services.